createdAt,value
2022-12-09T00:02:43.129Z,73.10
2022-12-09T00:07:47.552Z,69.10
2022-12-09T00:12:55.281Z,74.70
2022-12-09T00:17:59.496Z,70.80
2022-12-09T00:23:03.245Z,69.80
2022-12-09T00:28:07.071Z,63.10
2022-12-09T00:33:10.797Z,56.40
2022-12-09T00:38:14.523Z,63.50
2022-12-09T00:43:18.249Z,63.90
2022-12-09T00:48:22.390Z,62.50
2022-12-09T00:53:26.115Z,59.70
2022-12-09T00:58:31.720Z,55.20
2022-12-09T01:03:35.506Z,53.90
2022-12-09T01:08:40.209Z,49.90
2022-12-09T01:13:43.983Z,51.30
2022-12-09T01:18:49.420Z,53.30
2022-12-09T01:23:54.174Z,45.50
2022-12-09T01:28:59.556Z,45.50
2022-12-09T01:34:03.947Z,45.80
2022-12-09T01:39:07.641Z,45.50
2022-12-09T01:44:13.174Z,45.00
2022-12-09T01:49:24.568Z,40.50
2022-12-09T01:54:28.832Z,39.60
2022-12-09T01:59:32.946Z,39.70
2022-12-09T02:04:43.091Z,38.90
2022-12-09T02:09:56.594Z,36.60
2022-12-09T02:15:34.992Z,38.20
2022-12-09T02:20:46.012Z,36.10
2022-12-09T02:25:56.315Z,34.60
2022-12-09T02:31:22.392Z,35.50
2022-12-09T02:36:33.867Z,38.20
2022-12-09T02:46:45.885Z,36.10
2022-12-09T02:51:50.603Z,33.10
2022-12-09T02:57:04.502Z,29.60
2022-12-09T03:02:13.066Z,30.00
2022-12-09T03:07:41.395Z,28.30
2022-12-09T03:13:05.687Z,26.00
2022-12-09T03:18:15.952Z,27.80
2022-12-09T03:23:25.734Z,29.10
2022-12-09T03:28:35.354Z,31.20
2022-12-09T03:33:42.901Z,25.60
2022-12-09T03:38:49.665Z,26.20
2022-12-09T03:43:59.190Z,27.50
2022-12-09T03:49:03.174Z,22.70
2022-12-09T03:54:24.808Z,24.50
2022-12-09T03:59:34.157Z,25.60
2022-12-09T04:04:42.514Z,20.50
2022-12-09T04:09:46.260Z,23.50
2022-12-09T04:14:50.147Z,20.60
2022-12-09T04:19:53.877Z,20.40
2022-12-09T04:25:01.416Z,21.30
2022-12-09T04:30:07.093Z,21.20
2022-12-09T04:35:11.318Z,21.60
2022-12-09T04:40:21.309Z,20.60
2022-12-09T04:45:28.625Z,19.40
2022-12-09T04:50:32.511Z,17.80
2022-12-09T04:55:36.342Z,18.10
2022-12-09T05:00:39.947Z,17.90
2022-12-09T05:05:43.888Z,18.20
2022-12-09T05:10:50.511Z,17.70
2022-12-09T05:16:02.019Z,17.20
2022-12-09T05:21:13.751Z,18.70
2022-12-09T05:26:21.551Z,17.20
2022-12-09T05:31:28.268Z,16.10
2022-12-09T05:36:32.344Z,18.60
2022-12-09T05:41:36.663Z,16.20
2022-12-09T05:46:41.111Z,15.80
2022-12-09T05:51:44.996Z,14.30
2022-12-09T05:56:49.137Z,16.70
2022-12-09T06:01:55.072Z,18.20
2022-12-09T06:06:59.454Z,17.70
2022-12-09T06:12:04.282Z,15.80
2022-12-09T06:17:08.889Z,15.20
2022-12-09T06:22:12.783Z,16.00
2022-12-09T06:27:16.727Z,16.60
2022-12-09T06:32:22.493Z,13.20
2022-12-09T06:37:30.352Z,16.90
2022-12-09T06:42:37.761Z,13.90
2022-12-09T06:47:45.157Z,13.10
2022-12-09T06:52:50.812Z,15.80
2022-12-09T06:57:54.657Z,15.80
2022-12-09T07:02:58.721Z,16.30
2022-12-09T07:08:06.307Z,15.20
2022-12-09T07:13:12.120Z,13.20
2022-12-09T07:18:16.652Z,16.50
2022-12-09T07:23:23.229Z,12.90
2022-12-09T07:28:26.989Z,12.80
2022-12-09T07:33:32.056Z,19.90
2022-12-09T07:38:35.721Z,17.90
2022-12-09T07:43:39.808Z,13.30
2022-12-09T07:48:43.672Z,14.70
2022-12-09T07:53:48.770Z,14.30
2022-12-09T07:58:54.349Z,12.20
2022-12-09T08:03:59.489Z,13.90
2022-12-09T08:09:07.281Z,13.50
2022-12-09T08:14:13.138Z,12.30
2022-12-09T08:19:17.650Z,14.90
2022-12-09T08:24:21.852Z,12.80
2022-12-09T08:29:26.735Z,12.10
2022-12-09T08:34:32.414Z,11.90
2022-12-09T08:39:37.505Z,10.90
2022-12-09T08:44:41.742Z,10.90
2022-12-09T08:49:49.034Z,12.40
2022-12-09T08:55:00.945Z,12.10
2022-12-09T09:00:07.949Z,11.60
2022-12-09T09:05:12.438Z,12.80
2022-12-09T09:10:20.257Z,10.10
2022-12-09T09:15:35.080Z,11.60
2022-12-09T09:20:53.096Z,12.10
2022-12-09T09:25:57.468Z,12.80
2022-12-09T09:31:26.041Z,12.90
2022-12-09T09:36:40.449Z,12.00
2022-12-09T09:42:07.400Z,12.00
2022-12-09T09:47:38.796Z,13.10
2022-12-09T09:52:43.412Z,14.50
2022-12-09T09:57:56.893Z,17.10
2022-12-09T10:03:05.161Z,23.90
2022-12-09T10:08:57.740Z,75.00
2022-12-09T10:14:21.406Z,103.10
2022-12-09T10:19:40.213Z,88.80
2022-12-09T10:24:55.474Z,78.10
2022-12-09T10:30:15.741Z,65.40
2022-12-09T10:35:25.832Z,64.70
2022-12-09T10:40:51.151Z,62.10
2022-12-09T10:51:32.225Z,66.20
2022-12-09T10:56:39.333Z,54.00
2022-12-09T11:01:59.706Z,57.80
2022-12-09T11:07:16.528Z,56.20
2022-12-09T11:12:38.573Z,55.60
2022-12-09T11:18:00.808Z,48.70
2022-12-09T11:23:23.107Z,44.60
2022-12-09T11:28:49.953Z,43.00
2022-12-09T11:34:07.884Z,43.80
2022-12-09T11:39:29.902Z,41.20
2022-12-09T11:44:36.425Z,37.00
2022-12-09T11:50:17.612Z,35.50
2022-12-09T11:55:30.660Z,34.00
2022-12-09T12:01:00.441Z,45.80
2022-12-09T12:06:20.724Z,36.50
2022-12-09T12:11:39.437Z,32.10
2022-12-09T12:17:09.902Z,33.90
2022-12-09T12:22:26.310Z,32.70
2022-12-09T12:27:52.477Z,32.20
2022-12-09T12:33:59.647Z,27.20
2022-12-09T12:39:01.844Z,37.40
2022-12-09T12:45:09.015Z,26.60
2022-12-09T12:50:57.407Z,28.20
2022-12-09T12:56:35.319Z,24.40
2022-12-09T13:02:04.917Z,25.90
2022-12-09T13:07:37.359Z,27.10
2022-12-09T13:12:55.170Z,25.00
2022-12-09T13:18:24.951Z,26.60
2022-12-09T13:23:43.563Z,25.50
2022-12-09T13:28:59.924Z,25.90
2022-12-09T13:34:32.283Z,25.40
2022-12-09T13:39:42.408Z,20.50
2022-12-09T13:44:49.560Z,22.20
2022-12-09T13:50:04.986Z,26.80
2022-12-09T13:55:28.840Z,24.80
2022-12-09T14:00:34.501Z,24.20
2022-12-09T14:05:39.358Z,20.80
2022-12-09T14:10:49.547Z,23.70
2022-12-09T14:16:23.209Z,19.50
2022-12-09T14:21:30.861Z,23.80
2022-12-09T14:26:40.306Z,19.90
2022-12-09T14:31:58.258Z,16.50
2022-12-09T14:37:18.947Z,21.00
2022-12-09T14:42:35.503Z,16.70
2022-12-09T14:47:48.028Z,15.80
2022-12-09T14:53:02.328Z,16.70
2022-12-09T14:58:06.619Z,18.80
2022-12-09T15:03:39.415Z,16.70
2022-12-09T15:08:59.068Z,23.90
2022-12-09T15:14:26.666Z,16.60
2022-12-09T15:19:59.036Z,24.90
2022-12-09T15:24:55.545Z,35.70
2022-12-09T15:29:59.129Z,34.00
2022-12-09T15:35:18.392Z,35.60
2022-12-09T15:40:23.039Z,28.80
2022-12-09T15:45:31.814Z,30.30
2022-12-09T15:50:42.719Z,24.70
2022-12-09T15:55:53.812Z,28.10
2022-12-09T16:01:02.049Z,25.20
2022-12-09T16:06:08.800Z,22.20
2022-12-09T16:11:52.647Z,24.80
2022-12-09T16:17:51.756Z,60.20
2022-12-09T16:23:34.142Z,115.40
2022-12-09T16:28:54.238Z,89.00
2022-12-09T16:33:58.577Z,85.60
2022-12-09T16:39:16.270Z,84.90
2022-12-09T16:44:29.489Z,66.20
2022-12-09T16:49:33.035Z,73.10
2022-12-09T16:54:38.110Z,68.70
2022-12-09T16:59:52.459Z,63.20
2022-12-09T17:05:12.073Z,60.10
2022-12-09T17:10:16.522Z,63.40
2022-12-09T17:15:21.247Z,68.80
2022-12-09T17:20:25.213Z,58.00
2022-12-09T17:25:33.648Z,50.70
2022-12-09T17:30:39.350Z,54.80
2022-12-09T17:35:43.450Z,55.10
2022-12-09T17:40:47.996Z,46.30
2022-12-09T17:45:51.757Z,45.40
2022-12-09T17:50:57.014Z,51.80
2022-12-09T17:56:17.754Z,42.20
2022-12-09T18:01:24.164Z,45.50
2022-12-09T18:06:45.689Z,41.90
2022-12-09T18:11:54.511Z,42.20
2022-12-09T18:17:01.634Z,44.20
2022-12-09T18:22:05.604Z,40.90
2022-12-09T18:27:19.839Z,42.50
2022-12-09T18:32:35.916Z,43.00
2022-12-09T18:37:59.879Z,46.10
2022-12-09T18:43:11.460Z,41.50
2022-12-09T18:48:35.821Z,32.60
2022-12-09T18:54:27.226Z,29.40
2022-12-09T19:00:11.445Z,30.50
2022-12-09T19:05:46.881Z,35.00
2022-12-09T19:10:56.082Z,34.00
2022-12-09T19:16:05.362Z,32.70
2022-12-09T19:21:21.737Z,29.30
2022-12-09T19:26:56.164Z,29.30
2022-12-09T19:32:23.575Z,25.70
2022-12-09T19:37:31.389Z,27.20
2022-12-09T19:42:35.929Z,27.60
2022-12-09T19:48:03.392Z,24.50
2022-12-09T19:53:28.737Z,26.00
2022-12-09T19:58:50.439Z,25.40
2022-12-09T20:04:25.425Z,26.30
2022-12-09T20:09:56.498Z,23.20
2022-12-09T20:15:26.682Z,27.50
2022-12-09T20:20:31.213Z,25.90
2022-12-09T20:25:53.068Z,28.00
2022-12-09T20:31:41.297Z,34.70
2022-12-09T20:37:11.042Z,24.90
2022-12-09T20:43:01.975Z,24.50
2022-12-09T20:48:26.416Z,26.60
2022-12-09T20:53:43.029Z,26.90
2022-12-09T20:58:48.701Z,22.30
2022-12-09T21:04:00.487Z,24.30
2022-12-09T21:09:23.697Z,22.70
2022-12-09T21:14:47.882Z,33.30
2022-12-09T21:20:02.061Z,25.90
2022-12-09T21:25:15.721Z,26.00
2022-12-09T21:30:23.303Z,32.40
2022-12-09T21:35:27.630Z,53.00
2022-12-09T21:40:47.427Z,110.60
2022-12-09T21:45:54.486Z,141.90
2022-12-09T21:51:00.405Z,112.70
2022-12-09T21:56:21.223Z,97.90
2022-12-09T22:01:36.971Z,90.60
2022-12-09T22:06:40.848Z,92.60
2022-12-09T22:11:44.758Z,88.20
2022-12-09T22:16:48.867Z,87.40
2022-12-09T22:21:54.020Z,82.10
2022-12-09T22:27:01.279Z,80.60
2022-12-09T22:32:05.512Z,79.50
2022-12-09T22:37:41.624Z,73.30
2022-12-09T22:43:08.267Z,75.30
2022-12-09T22:48:55.050Z,71.20
2022-12-09T22:59:39.812Z,66.90
2022-12-09T23:04:47.146Z,63.90
2022-12-09T23:09:50.972Z,61.20
2022-12-09T23:14:54.700Z,56.00
2022-12-09T23:19:59.754Z,58.30
2022-12-09T23:25:27.526Z,57.20
2022-12-09T23:30:32.176Z,55.60
2022-12-09T23:35:39.278Z,52.20
2022-12-09T23:40:53.622Z,48.20
2022-12-09T23:46:03.897Z,52.90
2022-12-09T23:51:47.759Z,51.80
2022-12-09T23:57:12.697Z,49.70
